Allardt, Tennessee
Current Conditions -  °F | °C
As of 9:53 PM on Saturday 25 Oct 2014 (Local Time) from KCSV Reporting Station
Haze Haze  
Wind Chill: 13°   Ceiling: Unl
Heat Index: 13°   Visibility: 5mi
Dew Point: 11°   Wind: 3mph
Humidity: 89%   Direction: 260°W
Pressure: 30.07"   Gusts: NA
Location:  36.38°N, 84.88°W
Report Text: KCSV 260253Z AUTO 26003KT 5SM BR CLR 13/11 A3007 RMK AO2 SLP173 T01280111 53002
Loading
Personal Weather Stations






























Interactive Weather Map
Tropical Storm Tracking
New forecast layout! Learn more

10-Day Weather Forecast

Advertisements
Track Severe Weather on mobile